createdAt,value
2022-08-11T00:01:17.565Z,4.38
2022-08-11T00:03:49.282Z,4.15
2022-08-11T00:06:42.462Z,4.28
2022-08-11T00:11:42.953Z,3.50
2022-08-11T00:14:37.667Z,3.92
2022-08-11T00:17:14.239Z,4.10
2022-08-11T00:20:12.584Z,4.93
2022-08-11T00:22:34.805Z,4.43
2022-08-11T00:25:13.675Z,4.43
2022-08-11T00:27:42.517Z,3.88
2022-08-11T00:30:12.473Z,4.00
2022-08-11T00:32:44.196Z,3.80
2022-08-11T00:35:55.222Z,4.25
2022-08-11T00:38:03.740Z,3.70
2022-08-11T00:40:53.838Z,4.00
2022-08-11T00:43:34.606Z,4.20
2022-08-11T00:46:34.094Z,4.10
2022-08-11T00:49:35.060Z,3.63
2022-08-11T00:52:23.627Z,3.70
2022-08-11T00:55:15.321Z,3.67
2022-08-11T00:58:39.379Z,3.60
2022-08-11T01:01:12.470Z,3.88
2022-08-11T01:04:10.950Z,3.97
2022-08-11T01:06:50.103Z,3.95
2022-08-11T01:09:47.245Z,3.72
2022-08-11T01:12:31.492Z,4.45
2022-08-11T01:15:37.910Z,4.30
2022-08-11T01:18:38.473Z,3.88
2022-08-11T01:21:46.179Z,4.00
2022-08-11T01:25:09.498Z,4.05
2022-08-11T01:28:12.479Z,3.50
2022-08-11T01:30:54.490Z,3.95
2022-08-11T01:34:17.898Z,4.03
2022-08-11T01:37:29.508Z,3.90
2022-08-11T01:40:27.345Z,4.07
2022-08-11T01:43:43.809Z,4.18
2022-08-11T01:46:39.578Z,4.30
2022-08-11T01:50:08.403Z,4.53
2022-08-11T01:53:13.203Z,4.32
2022-08-11T01:56:10.674Z,4.82
2022-08-11T01:59:12.672Z,4.20
2022-08-11T02:02:42.523Z,4.18
2022-08-11T02:05:27.938Z,4.57
2022-08-11T02:08:12.052Z,4.40
2022-08-11T02:11:16.314Z,4.68
2022-08-11T02:14:12.313Z,4.38
2022-08-11T02:16:57.844Z,4.18
2022-08-11T02:19:56.766Z,4.25
2022-08-11T02:22:58.715Z,4.65
2022-08-11T02:25:38.466Z,5.25
2022-08-11T02:28:16.356Z,5.25
2022-08-11T02:32:24.342Z,5.25
2022-08-11T02:35:14.896Z,4.90
2022-08-11T02:37:53.345Z,4.95
2022-08-11T02:40:38.687Z,4.57
2022-08-11T02:43:28.452Z,5.03
2022-08-11T02:46:18.160Z,5.20
2022-08-11T02:49:15.234Z,5.07
2022-08-11T02:52:09.938Z,4.97
2022-08-11T02:55:06.789Z,4.68
2022-08-11T02:58:10.883Z,4.80
2022-08-11T03:01:28.252Z,5.00
2022-08-11T03:04:14.778Z,4.80
2022-08-11T03:06:53.015Z,5.20
2022-08-11T03:09:42.773Z,4.82
2022-08-11T03:12:29.618Z,4.68
2022-08-11T03:15:31.061Z,4.78
2022-08-11T03:18:12.931Z,4.45
2022-08-11T03:21:03.102Z,5.10
2022-08-11T03:23:51.473Z,4.50
2022-08-11T03:26:33.549Z,5.13
2022-08-11T03:29:25.594Z,5.00
2022-08-11T03:32:20.144Z,5.38
2022-08-11T03:34:49.365Z,5.40
2022-08-11T03:37:53.952Z,4.97
2022-08-11T03:41:54.619Z,5.90
2022-08-11T03:44:35.702Z,5.90
2022-08-11T03:47:17.450Z,5.50
2022-08-11T03:50:30.346Z,5.60
2022-08-11T03:53:34.384Z,5.77
2022-08-11T03:56:38.901Z,5.20
2022-08-11T03:59:32.747Z,5.80
2022-08-11T04:02:49.522Z,5.63
2022-08-11T04:06:13.200Z,5.85
2022-08-11T04:09:27.053Z,5.97
2022-08-11T04:12:35.233Z,5.50
2022-08-11T04:16:11.540Z,6.05
2022-08-11T04:19:17.191Z,5.97
2022-08-11T04:22:21.296Z,5.60
2022-08-11T04:24:51.201Z,6.22
2022-08-11T04:28:28.627Z,6.20
2022-08-11T04:31:07.365Z,6.28
2022-08-11T04:33:37.646Z,6.30
2022-08-11T04:37:51.256Z,5.90
2022-08-11T04:40:51.458Z,6.07
2022-08-11T04:44:07.623Z,6.22
2022-08-11T04:48:04.407Z,6.30
2022-08-11T04:51:09.425Z,6.32
2022-08-11T04:54:28.331Z,5.70
2022-08-11T04:57:24.184Z,6.00
2022-08-11T05:00:31.999Z,6.10
2022-08-11T05:03:23.426Z,6.00
2022-08-11T05:06:40.933Z,5.85
2022-08-11T05:09:23.924Z,6.28
2022-08-11T05:12:32.672Z,6.25
2022-08-11T05:15:19.093Z,6.28
2022-08-11T05:18:23.822Z,6.28
2022-08-11T05:21:14.013Z,6.03
2022-08-11T05:24:05.824Z,6.47
2022-08-11T05:27:04.533Z,6.28
2022-08-11T05:30:23.319Z,5.93
2022-08-11T05:33:53.635Z,6.40
2022-08-11T05:36:52.375Z,6.20
2022-08-11T05:39:48.868Z,6.38
2022-08-11T05:42:39.756Z,6.95
2022-08-11T05:45:57.359Z,7.00
2022-08-11T05:48:39.124Z,7.57
2022-08-11T05:51:30.355Z,7.15
2022-08-11T05:54:28.331Z,6.85
2022-08-11T05:56:59.891Z,6.72
2022-08-11T05:59:30.995Z,7.40
2022-08-11T06:02:04.889Z,7.35
2022-08-11T06:04:32.791Z,7.60
2022-08-11T06:07:09.976Z,7.30
2022-08-11T06:09:50.741Z,6.90
2022-08-11T06:12:26.367Z,7.95
2022-08-11T06:14:58.583Z,7.13
2022-08-11T06:17:38.579Z,7.00
2022-08-11T06:20:13.253Z,7.35
2022-08-11T06:22:44.591Z,6.88
2022-08-11T06:25:12.589Z,6.50
2022-08-11T06:27:43.213Z,6.47
2022-08-11T06:30:14.060Z,6.35
2022-08-11T06:32:46.506Z,5.75
2022-08-11T06:35:38.955Z,5.97
2022-08-11T06:38:32.057Z,5.32
2022-08-11T06:41:32.427Z,5.40
2022-08-11T06:44:14.531Z,6.10
2022-08-11T06:46:51.783Z,5.40
2022-08-11T06:49:41.764Z,5.25
2022-08-11T06:52:35.014Z,5.60
2022-08-11T06:55:54.909Z,5.47
2022-08-11T06:58:14.888Z,4.90
2022-08-11T07:00:42.591Z,4.88
2022-08-11T07:03:17.222Z,5.72
2022-08-11T07:05:56.178Z,5.20
2022-08-11T07:09:28.101Z,4.85
2022-08-11T07:12:55.252Z,5.18
2022-08-11T07:16:10.836Z,4.72
2022-08-11T07:18:56.150Z,4.90
2022-08-11T07:22:01.477Z,5.15
2022-08-11T07:24:59.577Z,4.80
2022-08-11T07:28:14.408Z,5.15
2022-08-11T07:30:43.645Z,5.03
2022-08-11T07:34:04.823Z,5.22
2022-08-11T07:36:02.937Z,5.15
2022-08-11T07:38:47.588Z,5.35
2022-08-11T07:41:18.629Z,5.10
2022-08-11T07:43:50.840Z,5.03
2022-08-11T07:46:38.806Z,4.80
2022-08-11T07:49:27.414Z,5.50
2022-08-11T07:52:14.576Z,4.47
2022-08-11T07:54:43.872Z,4.65
2022-08-11T07:58:13.685Z,4.85
2022-08-11T08:00:40.588Z,4.68
2022-08-11T08:03:27.461Z,4.97
2022-08-11T08:06:15.406Z,4.32
2022-08-11T08:09:20.398Z,4.38
2022-08-11T08:12:06.202Z,4.65
2022-08-11T08:14:52.685Z,4.30
2022-08-11T08:17:41.335Z,4.30
2022-08-11T08:20:14.633Z,4.47
2022-08-11T08:22:47.877Z,4.65
2022-08-11T08:25:18.068Z,4.60
2022-08-11T08:27:46.194Z,4.70
2022-08-11T08:30:32.517Z,4.18
2022-08-11T08:33:01.072Z,3.80
2022-08-11T08:35:32.832Z,4.40
2022-08-11T08:38:01.112Z,3.90
2022-08-11T08:40:31.941Z,3.80
2022-08-11T08:43:07.522Z,3.43
2022-08-11T08:45:37.845Z,3.90
2022-08-11T08:48:08.961Z,3.63
2022-08-11T08:50:57.992Z,3.47
2022-08-11T08:53:32.516Z,3.85
2022-08-11T08:56:01.394Z,3.40
2022-08-11T08:58:29.531Z,3.40
2022-08-11T09:00:58.556Z,3.45
2022-08-11T09:04:04.957Z,3.17
2022-08-11T09:06:16.774Z,3.50
2022-08-11T09:08:45.192Z,3.55
2022-08-11T09:11:32.158Z,3.20
2022-08-11T09:14:05.075Z,2.92
2022-08-11T09:16:36.233Z,3.28
2022-08-11T09:19:04.079Z,3.38
2022-08-11T09:21:41.720Z,3.13
2022-08-11T09:24:35.296Z,3.60
2022-08-11T09:27:08.788Z,3.20
2022-08-11T09:29:36.863Z,3.10
2022-08-11T09:32:07.149Z,3.22
2022-08-11T09:34:36.711Z,3.33
2022-08-11T09:37:53.349Z,2.88
2022-08-11T09:40:30.916Z,3.00
2022-08-11T09:43:18.689Z,3.03
2022-08-11T09:45:51.679Z,2.92
2022-08-11T09:48:20.499Z,2.95
2022-08-11T09:50:54.291Z,3.20
2022-08-11T09:53:35.923Z,3.55
2022-08-11T09:56:39.663Z,3.00
2022-08-11T09:59:07.627Z,3.22
2022-08-11T10:01:47.256Z,3.00
2022-08-11T10:04:31.147Z,3.42
2022-08-11T10:07:06.892Z,2.90
2022-08-11T10:09:52.746Z,3.42
2022-08-11T10:12:24.762Z,2.80
2022-08-11T10:15:16.092Z,3.08
2022-08-11T10:18:06.490Z,2.83
2022-08-11T10:20:36.063Z,3.45
2022-08-11T10:23:22.807Z,2.88
2022-08-11T10:26:09.509Z,2.92
2022-08-11T10:28:55.791Z,2.85
2022-08-11T10:31:57.092Z,2.97
2022-08-11T10:34:28.449Z,2.65
2022-08-11T10:36:57.275Z,3.00
2022-08-11T10:39:27.693Z,2.78
2022-08-11T10:42:25.550Z,3.10
2022-08-11T10:45:03.931Z,2.60
2022-08-11T10:47:39.305Z,2.60
2022-08-11T10:50:33.260Z,2.70
2022-08-11T10:53:19.367Z,2.50
2022-08-11T10:58:50.675Z,3.10
2022-08-11T11:01:27.395Z,2.17
2022-08-11T11:04:12.543Z,2.40
2022-08-11T11:07:06.041Z,2.50
2022-08-11T11:09:34.351Z,2.50
2022-08-11T11:12:32.023Z,2.40
2022-08-11T11:15:18.331Z,2.63
2022-08-11T11:18:07.592Z,2.70
2022-08-11T11:20:46.513Z,2.45
2022-08-11T11:23:35.744Z,2.75
2022-08-11T11:26:27.498Z,2.70
2022-08-11T11:29:07.083Z,2.45
2022-08-11T11:31:39.821Z,2.53
2022-08-11T11:34:15.940Z,2.50
2022-08-11T11:36:58.273Z,2.65
2022-08-11T11:41:56.014Z,2.70
2022-08-11T11:44:24.425Z,2.75
2022-08-11T11:46:52.124Z,2.60
2022-08-11T11:51:56.502Z,2.65
2022-08-11T11:54:31.026Z,2.80
2022-08-11T11:57:19.258Z,2.50
2022-08-11T12:00:05.995Z,2.50
2022-08-11T12:02:33.901Z,2.72
2022-08-11T12:05:02.101Z,2.50
2022-08-11T12:07:57.017Z,2.63
2022-08-11T12:10:37.155Z,2.42
2022-08-11T12:13:23.283Z,2.67
2022-08-11T12:16:31.306Z,2.80
2022-08-11T12:18:40.213Z,2.38
2022-08-11T12:21:08.366Z,2.60
2022-08-11T12:23:56.107Z,2.88
2022-08-11T12:26:43.129Z,2.47
2022-08-11T12:29:12.021Z,2.60
2022-08-11T12:31:40.473Z,2.72
2022-08-11T12:34:16.369Z,2.55
2022-08-11T12:36:59.161Z,2.70
2022-08-11T12:40:17.188Z,2.92
2022-08-11T12:42:55.541Z,2.45
2022-08-11T12:45:27.724Z,3.10
2022-08-11T12:48:57.655Z,2.58
2022-08-11T12:52:11.338Z,2.95
2022-08-11T12:54:52.215Z,2.97
2022-08-11T12:57:54.608Z,2.70
2022-08-11T13:00:41.466Z,2.90
2022-08-11T13:03:29.375Z,3.08
2022-08-11T13:05:59.086Z,2.97
2022-08-11T13:08:28.179Z,2.70
2022-08-11T13:11:15.949Z,2.88
2022-08-11T13:13:54.496Z,2.60
2022-08-11T13:16:29.619Z,14.27
2022-08-11T13:19:01.697Z,3.00
2022-08-11T13:21:29.576Z,3.10
2022-08-11T13:23:59.675Z,3.03
2022-08-11T13:26:46.926Z,2.53
2022-08-11T13:29:22.197Z,2.95
2022-08-11T13:31:53.292Z,2.70
2022-08-11T13:34:23.236Z,2.97
2022-08-11T13:36:56.116Z,2.78
2022-08-11T13:39:25.947Z,2.88
2022-08-11T13:41:57.631Z,2.63
2022-08-11T13:44:27.242Z,2.70
2022-08-11T13:47:01.516Z,2.50
2022-08-11T13:49:35.228Z,2.60
2022-08-11T13:52:03.162Z,2.72
2022-08-11T13:54:38.346Z,2.85
2022-08-11T13:58:06.016Z,2.83
2022-08-11T14:00:09.719Z,2.40
2022-08-11T14:02:45.330Z,2.65
2022-08-11T14:07:51.169Z,3.30
2022-08-11T14:10:21.231Z,2.78
2022-08-11T14:13:17.546Z,2.90
2022-08-11T14:15:47.167Z,2.50
2022-08-11T14:18:21.967Z,2.22
2022-08-11T14:21:13.067Z,2.70
2022-08-11T14:23:46.087Z,2.58
2022-08-11T14:26:24.316Z,2.50
2022-08-11T14:28:56.874Z,2.63
2022-08-11T14:31:29.287Z,2.50
2022-08-11T14:34:01.478Z,2.38
2022-08-11T14:36:36.362Z,2.15
2022-08-11T14:39:18.123Z,2.65
2022-08-11T14:42:13.119Z,2.50
2022-08-11T14:45:04.813Z,2.60
2022-08-11T14:47:36.321Z,2.30
2022-08-11T14:50:12.338Z,2.40
2022-08-11T14:52:48.251Z,2.80
2022-08-11T14:55:34.746Z,2.70
2022-08-11T14:58:02.867Z,2.45
2022-08-11T15:00:31.520Z,2.70
2022-08-11T15:03:28.209Z,2.60
2022-08-11T15:05:58.598Z,2.42
2022-08-11T15:08:56.735Z,2.28
2022-08-11T15:11:47.780Z,2.40
2022-08-11T15:14:36.069Z,2.22
2022-08-11T15:17:10.652Z,2.75
2022-08-11T15:20:00.789Z,2.50
2022-08-11T15:22:46.941Z,2.55
2022-08-11T15:25:15.197Z,2.40
2022-08-11T15:28:02.463Z,2.60
2022-08-11T15:30:49.012Z,2.58
2022-08-11T15:33:37.529Z,2.55
2022-08-11T15:36:26.351Z,2.28
2022-08-11T15:39:06.960Z,2.30
2022-08-11T15:42:19.519Z,2.40
2022-08-11T15:45:12.085Z,2.33
2022-08-11T15:47:50.993Z,2.35
2022-08-11T15:50:21.939Z,2.70
2022-08-11T15:53:00.223Z,3.05
2022-08-11T15:55:29.965Z,2.83
2022-08-11T15:58:34.137Z,2.40
2022-08-11T16:01:21.112Z,2.40
2022-08-11T16:04:14.288Z,2.67
2022-08-11T16:06:49.539Z,2.35
2022-08-11T16:09:20.953Z,3.00
2022-08-11T16:11:52.265Z,3.70
2022-08-11T16:14:38.640Z,2.67
2022-08-11T16:17:08.264Z,2.50
2022-08-11T16:19:36.677Z,2.58
2022-08-11T16:22:09.855Z,2.38
2022-08-11T16:27:03.580Z,2.30
2022-08-11T16:27:28.343Z,2.55
2022-08-11T16:29:57.244Z,2.40
2022-08-11T16:32:25.759Z,2.25
2022-08-11T16:35:16.363Z,2.55
2022-08-11T16:38:02.586Z,2.33
2022-08-11T16:40:31.751Z,3.00
2022-08-11T16:43:18.552Z,2.30
2022-08-11T16:46:05.256Z,2.45
2022-08-11T16:48:38.131Z,2.60
2022-08-11T16:51:07.722Z,2.00
2022-08-11T16:54:00.206Z,2.30
2022-08-11T16:56:54.829Z,2.30
2022-08-11T16:59:30.949Z,2.50
2022-08-11T17:02:09.855Z,2.15
2022-08-11T17:05:13.002Z,2.15
2022-08-11T17:08:01.169Z,2.65
2022-08-11T17:11:16.936Z,2.33
2022-08-11T17:13:49.049Z,2.30
2022-08-11T17:19:01.738Z,2.13
2022-08-11T17:21:30.978Z,2.15
2022-08-11T17:24:06.533Z,2.45
2022-08-11T17:26:59.354Z,2.28
2022-08-11T17:29:32.127Z,2.25
2022-08-11T17:32:20.166Z,2.22
2022-08-11T17:35:06.887Z,2.20
2022-08-11T17:37:36.116Z,2.35
2022-08-11T17:40:07.362Z,2.45
2022-08-11T17:42:53.777Z,2.33
2022-08-11T17:45:41.700Z,2.35
2022-08-11T17:48:28.240Z,2.20
2022-08-11T17:50:59.238Z,2.25
2022-08-11T17:54:02.100Z,2.30
2022-08-11T17:56:54.237Z,2.47
2022-08-11T17:59:40.282Z,2.42
2022-08-11T18:02:36.437Z,2.35
2022-08-11T18:05:09.593Z,2.38
2022-08-11T18:08:01.209Z,2.30
2022-08-11T18:10:49.409Z,2.55
2022-08-11T18:13:42.766Z,2.40
2022-08-11T18:16:29.185Z,2.40
2022-08-11T18:19:15.113Z,2.33
2022-08-11T18:22:15.646Z,2.42
2022-08-11T18:25:12.474Z,2.85
2022-08-11T18:28:01.260Z,2.60
2022-08-11T18:30:48.947Z,3.28
2022-08-11T18:34:03.931Z,2.70
2022-08-11T18:36:49.834Z,3.40
2022-08-11T18:39:36.887Z,3.20
2022-08-11T18:42:29.653Z,3.03
2022-08-11T18:45:22.908Z,3.10
2022-08-11T18:48:11.596Z,2.90
2022-08-11T18:51:29.758Z,3.13
2022-08-11T18:54:08.926Z,2.72
2022-08-11T18:56:55.264Z,2.40
2022-08-11T18:59:44.455Z,2.55
2022-08-11T19:02:32.128Z,2.30
2022-08-11T19:06:05.946Z,2.50
2022-08-11T19:08:34.069Z,2.60
2022-08-11T19:11:20.811Z,2.20
2022-08-11T19:14:10.561Z,2.30
2022-08-11T19:16:57.170Z,2.70
2022-08-11T19:19:47.326Z,2.30
2022-08-11T19:22:33.820Z,2.25
2022-08-11T19:25:25.338Z,2.60
2022-08-11T19:28:12.586Z,2.55
2022-08-11T19:30:58.815Z,2.72
2022-08-11T19:34:02.824Z,2.25
2022-08-11T19:36:52.279Z,2.20
2022-08-11T19:39:39.750Z,2.38
2022-08-11T19:42:29.375Z,2.40
2022-08-11T19:45:15.404Z,2.50
2022-08-11T19:48:30.160Z,2.30
2022-08-11T19:51:08.469Z,2.60
2022-08-11T19:53:54.522Z,2.60
2022-08-11T19:56:40.582Z,2.13
2022-08-11T19:59:26.893Z,2.30
2022-08-11T20:02:14.686Z,2.50
2022-08-11T20:05:01.594Z,2.50
2022-08-11T20:07:48.074Z,2.83
2022-08-11T20:10:38.037Z,2.78
2022-08-11T20:13:26.711Z,2.53
2022-08-11T20:16:13.514Z,2.80
2022-08-11T20:19:00.979Z,2.53
2022-08-11T20:21:47.782Z,3.10
2022-08-11T20:24:34.775Z,2.50
2022-08-11T20:27:24.918Z,2.50
2022-08-11T20:30:12.561Z,2.40
2022-08-11T20:33:00.513Z,2.78
2022-08-11T20:35:46.832Z,3.10
2022-08-11T20:38:33.713Z,3.05
2022-08-11T20:41:20.528Z,2.90
2022-08-11T20:44:09.444Z,2.85
2022-08-11T20:46:58.993Z,2.60
2022-08-11T20:49:52.608Z,2.90
2022-08-11T20:52:44.618Z,2.90
2022-08-11T20:55:46.439Z,2.67
2022-08-11T21:01:46.363Z,3.08
2022-08-11T21:04:33.311Z,2.97
2022-08-11T21:07:28.384Z,3.60
2022-08-11T21:10:23.359Z,2.95
2022-08-11T21:13:25.638Z,3.05
2022-08-11T21:16:26.577Z,3.08
2022-08-11T21:19:59.853Z,2.90
2022-08-11T21:23:05.531Z,3.05
2022-08-11T21:25:59.837Z,3.28
2022-08-11T21:28:47.646Z,3.10
2022-08-11T21:31:34.707Z,3.45
2022-08-11T21:34:21.925Z,3.38
2022-08-11T21:37:08.588Z,3.88
2022-08-11T21:39:54.479Z,3.72
2022-08-11T21:42:40.853Z,3.58
2022-08-11T21:45:28.370Z,3.40
2022-08-11T21:48:15.209Z,3.60
2022-08-11T21:51:01.185Z,3.65
2022-08-11T21:53:47.654Z,3.60
2022-08-11T21:56:33.965Z,3.60
2022-08-11T21:59:21.535Z,3.92
2022-08-11T22:02:12.974Z,3.45
2022-08-11T22:05:02.517Z,3.90
2022-08-11T22:07:48.930Z,4.05
2022-08-11T22:10:42.458Z,3.63
2022-08-11T22:13:31.118Z,3.95
2022-08-11T22:16:18.410Z,4.32
2022-08-11T22:19:05.882Z,4.07
2022-08-11T22:22:01.835Z,3.97
2022-08-11T22:24:51.963Z,4.03
2022-08-11T22:27:38.874Z,4.15
2022-08-11T22:30:26.296Z,4.00
2022-08-11T22:33:12.661Z,4.15
2022-08-11T22:36:02.896Z,4.10
2022-08-11T22:38:49.806Z,4.20
2022-08-11T22:41:36.065Z,3.70
2022-08-11T22:44:22.574Z,3.53
2022-08-11T22:47:10.694Z,4.00
2022-08-11T22:49:58.532Z,3.88
2022-08-11T22:52:46.630Z,3.42
2022-08-11T22:55:34.024Z,3.25
2022-08-11T22:58:21.481Z,3.13
2022-08-11T23:01:08.949Z,3.28
2022-08-11T23:03:55.426Z,3.20
2022-08-11T23:06:42.276Z,3.33
2022-08-11T23:09:28.568Z,3.65
2022-08-11T23:12:14.367Z,3.30
2022-08-11T23:15:00.563Z,3.40
2022-08-11T23:17:47.420Z,3.42
2022-08-11T23:20:37.893Z,3.60
2022-08-11T23:23:33.156Z,4.15
2022-08-11T23:26:20.239Z,3.67
2022-08-11T23:29:06.266Z,3.63
2022-08-11T23:31:53.788Z,3.30
2022-08-11T23:35:03.972Z,3.70
2022-08-11T23:38:06.259Z,2.92
2022-08-11T23:40:52.056Z,3.47
2022-08-11T23:43:42.718Z,3.13
2022-08-11T23:46:29.178Z,3.17
2022-08-11T23:49:18.218Z,3.78
2022-08-11T23:52:04.184Z,3.90
2022-08-11T23:54:50.832Z,3.40
2022-08-11T23:57:37.171Z,3.60
